Time;durP1;ratioP1;P1;durP2;ratioP2;P2;SDS_P1;SDS_P2;PMS_P1;PMS_P2;Temp;Humidity;BMP_temperature;BMP_pressure;BME280_temperature;BME280_humidity;BME280_pressure;Samples;Min_cycle;Max_cycle;Signal;HPM_P1;HPM_P2
2021/11/29 00:00:49;;;;;;;10.27;1.38;;;2.20;99.90;;;;;;6187569;23;20023;-78
2021/11/29 00:03:18;;;;;;;7.30;1.10;;;2.20;99.90;;;;;;6211013;23;20070;-80
2021/11/29 00:05:44;;;;;;;8.65;1.08;;;2.20;99.90;;;;;;6188218;23;20044;-86
2021/11/29 00:08:10;;;;;;;7.80;0.95;;;2.10;99.90;;;;;;6213351;23;20096;-82
2021/11/29 00:10:36;;;;;;;9.70;0.85;;;2.10;99.90;;;;;;6187204;23;20377;-80
2021/11/29 00:13:03;;;;;;;7.13;1.10;;;2.10;99.90;;;;;;6186390;23;20046;-84
2021/11/29 00:15:29;;;;;;;5.90;0.93;;;2.20;99.90;;;;;;6187732;23;20008;-85
2021/11/29 00:17:55;;;;;;;10.15;0.98;;;2.10;99.90;;;;;;6211982;23;20028;-83
2021/11/29 00:20:21;;;;;;;10.70;1.25;;;2.10;99.90;;;;;;6211657;23;20017;-81
2021/11/29 00:22:47;;;;;;;6.30;1.15;;;2.10;99.90;;;;;;6187244;23;20103;-83
2021/11/29 00:25:13;;;;;;;2.90;0.70;;;2.10;99.90;;;;;;6211426;23;20056;-81
2021/11/29 00:27:40;;;;;;;13.38;1.00;;;2.60;99.90;;;;;;6185988;23;20015;-81
2021/11/29 00:30:11;;;;;;;5.82;0.90;;;2.20;99.90;;;;;;6187500;23;20013;-83
2021/11/29 00:32:38;;;;;;;7.93;1.25;;;1.50;99.90;;;;;;6163220;23;20060;-80
2021/11/29 00:35:05;;;;;;;7.85;1.23;;;2.20;99.90;;;;;;6187385;23;20096;-83
2021/11/29 00:37:30;;;;;;;6.80;0.73;;;2.30;99.90;;;;;;6187070;23;20121;-78
2021/11/29 00:39:56;;;;;;;17.55;1.02;;;2.40;99.90;;;;;;6187138;23;20430;-83
2021/11/29 00:42:22;;;;;;;9.95;1.20;;;2.50;99.90;;;;;;6186335;23;20441;-78
2021/11/29 00:44:48;;;;;;;5.32;0.90;;;2.50;99.90;;;;;;6187447;23;20425;-83
2021/11/29 00:47:13;;;;;;;7.82;0.88;;;2.50;99.90;;;;;;6186274;23;20388;-83
2021/11/29 00:49:40;;;;;;;6.05;1.00;;;2.50;99.90;;;;;;6211471;23;20047;-80
2021/11/29 00:52:06;;;;;;;9.52;1.00;;;2.70;99.90;;;;;;6211238;23;20012;-84
2021/11/29 00:54:32;;;;;;;15.98;1.13;;;3.00;99.90;;;;;;6212524;23;20330;-81
2021/11/29 00:56:57;;;;;;;12.90;1.10;;;3.10;99.90;;;;;;6211229;23;20109;-82
2021/11/29 00:59:23;;;;;;;9.40;0.70;;;3.60;99.90;;;;;;6186051;23;20498;-80
2021/11/29 01:01:49;;;;;;;8.60;0.85;;;3.10;99.90;;;;;;6210686;23;20017;-83
2021/11/29 01:04:14;;;;;;;11.00;1.40;;;3.80;99.90;;;;;;6185351;23;20047;-78
2021/11/29 01:06:40;;;;;;;4.70;1.35;;;4.20;99.90;;;;;;6210666;23;20013;-80
2021/11/29 01:09:06;;;;;;;4.32;0.85;;;3.30;99.90;;;;;;6187255;23;20024;-83
2021/11/29 01:11:32;;;;;;;10.45;1.30;;;3.20;99.90;;;;;;6210550;23;20091;-83
2021/11/29 01:13:58;;;;;;;8.10;1.00;;;3.30;99.90;;;;;;6185737;23;20416;-81
2021/11/29 01:16:24;;;;;;;7.78;0.80;;;3.30;99.90;;;;;;6187297;23;20009;-79
2021/11/29 01:18:50;;;;;;;5.45;0.35;;;3.30;99.90;;;;;;6186933;23;20095;-82
2021/11/29 01:21:17;;;;;;;4.97;0.52;;;3.80;99.90;;;;;;6185681;23;20008;-80
2021/11/29 01:23:44;;;;;;;5.38;0.63;;;3.30;99.90;;;;;;6185453;23;20103;-82
2021/11/29 01:26:10;;;;;;;3.60;0.30;;;3.30;99.90;;;;;;6186058;23;20013;-80
2021/11/29 01:28:37;;;;;;;0.73;0.20;;;3.20;99.90;;;;;;6186226;23;20048;-82
2021/11/29 01:31:03;;;;;;;1.45;0.22;;;3.80;99.90;;;;;;6185470;23;20070;-80
2021/11/29 01:33:29;;;;;;;3.80;0.40;;;3.20;99.90;;;;;;6184853;23;20058;-80
2021/11/29 01:35:55;;;;;;;1.00;0.10;;;3.90;99.90;;;;;;6185490;23;20071;-84
2021/11/29 01:38:20;;;;;;;2.78;0.50;;;3.00;99.90;;;;;;6187441;23;20012;-81
2021/11/29 01:40:46;;;;;;;1.65;0.57;;;3.70;99.90;;;;;;6210218;23;20059;-83
2021/11/29 01:43:14;;;;;;;4.72;1.00;;;2.80;99.90;;;;;;6185598;23;20312;-78
2021/11/29 01:45:44;;;;;;;4.30;1.35;;;2.70;99.90;;;;;;6185716;23;20051;-83
2021/11/29 01:48:11;;;;;;;1.70;0.90;;;2.60;99.90;;;;;;6185126;23;20013;-82
2021/11/29 01:50:39;;;;;;;4.38;1.60;;;2.60;99.90;;;;;;6184568;23;20429;-81
2021/11/29 01:53:05;;;;;;;5.57;0.85;;;2.90;99.90;;;;;;6186766;23;20019;-80
2021/11/29 01:55:32;;;;;;;2.55;0.50;;;2.60;99.90;;;;;;6213141;23;20013;-78
2021/11/29 01:57:57;;;;;;;1.25;0.30;;;2.50;99.90;;;;;;6212178;23;20023;-84
2021/11/29 02:00:26;;;;;;;3.15;0.50;;;2.50;99.90;;;;;;6187838;23;20017;-83
2021/11/29 02:02:54;;;;;;;2.55;0.38;;;2.50;99.90;;;;;;6210801;23;20475;-80
2021/11/29 02:05:20;;;;;;;4.75;0.35;;;2.50;99.90;;;;;;6187213;23;20352;-81
2021/11/29 02:07:46;;;;;;;3.47;0.70;;;2.50;99.90;;;;;;6211873;23;20013;-82
2021/11/29 02:10:14;;;;;;;3.55;0.38;;;2.50;99.90;;;;;;6213425;23;20013;-81
2021/11/29 02:12:40;;;;;;;1.27;0.20;;;2.50;99.90;;;;;;6187996;23;20088;-82
2021/11/29 02:15:06;;;;;;;5.05;0.50;;;2.60;99.90;;;;;;6187723;23;20036;-81
2021/11/29 02:17:32;;;;;;;3.72;0.40;;;2.60;99.90;;;;;;6188472;23;20016;-83
2021/11/29 02:20:00;;;;;;;1.52;0.30;;;2.60;99.90;;;;;;6162976;23;20017;-77
2021/11/29 02:22:45;;;;;;;2.40;0.40;;;2.60;99.90;;;;;;6211824;23;20328;-78
2021/11/29 02:25:13;;;;;;;7.38;0.50;;;2.60;99.90;;;;;;6187580;23;20340;-77
2021/11/29 02:27:42;;;;;;;5.90;0.55;;;2.60;99.90;;;;;;6209999;23;20017;-79
2021/11/29 02:30:09;;;;;;;6.43;0.70;;;2.60;99.90;;;;;;6163077;23;20059;-78
2021/11/29 02:32:35;;;;;;;5.95;0.68;;;2.60;99.90;;;;;;6187921;23;20016;-77
2021/11/29 02:35:01;;;;;;;4.15;1.20;;;2.60;99.90;;;;;;6185741;23;20012;-79
2021/11/29 02:37:27;;;;;;;5.32;0.50;;;2.50;99.90;;;;;;6212617;23;20015;-79
2021/11/29 02:39:52;;;;;;;3.10;0.88;;;2.50;99.90;;;;;;6188400;23;20020;-81
2021/11/29 02:42:18;;;;;;;2.00;0.30;;;2.60;99.90;;;;;;6186926;23;20013;-82
2021/11/29 02:44:44;;;;;;;3.95;0.45;;;2.60;99.90;;;;;;6186552;23;20044;-82
2021/11/29 02:47:10;;;;;;;5.80;0.45;;;2.60;99.90;;;;;;6187024;23;20317;-84
2021/11/29 02:49:36;;;;;;;3.20;0.63;;;2.60;99.90;;;;;;6186530;23;20036;-78
2021/11/29 02:52:07;;;;;;;3.45;0.45;;;2.60;99.90;;;;;;6210071;23;20452;-79
2021/11/29 02:54:35;;;;;;;3.60;0.65;;;2.60;99.90;;;;;;6187528;23;20012;-79
2021/11/29 02:57:06;;;;;;;4.50;0.60;;;2.60;99.90;;;;;;6186874;23;20090;-80
2021/11/29 02:59:34;;;;;;;5.38;0.68;;;2.60;99.90;;;;;;6212741;23;20321;-78
2021/11/29 03:02:03;;;;;;;4.80;0.60;;;2.60;99.90;;;;;;6187202;23;20012;-79
2021/11/29 03:04:30;;;;;;;8.23;0.65;;;2.60;99.90;;;;;;6184642;23;20095;-78
2021/11/29 03:06:58;;;;;;;3.50;0.50;;;2.60;99.90;;;;;;6211536;23;20444;-83
2021/11/29 03:09:24;;;;;;;3.08;0.55;;;2.60;99.90;;;;;;6211997;23;20091;-81
2021/11/29 03:11:50;;;;;;;7.57;0.93;;;2.60;99.90;;;;;;6211411;23;20024;-82
2021/11/29 03:14:17;;;;;;;8.00;0.77;;;2.60;99.90;;;;;;6185396;23;20388;-83
2021/11/29 03:16:43;;;;;;;5.18;0.70;;;2.60;99.90;;;;;;6188084;23;20122;-80
2021/11/29 03:19:09;;;;;;;9.20;1.05;;;2.60;99.90;;;;;;6187049;23;20194;-83
2021/11/29 03:21:35;;;;;;;4.30;0.57;;;2.70;99.90;;;;;;6212241;23;20035;-80
2021/11/29 03:24:05;;;;;;;6.22;0.65;;;2.70;99.90;;;;;;6210892;23;20335;-82
2021/11/29 03:26:32;;;;;;;6.15;0.70;;;2.80;99.90;;;;;;6211136;23;20451;-80
2021/11/29 03:29:04;;;;;;;5.35;0.60;;;3.50;99.90;;;;;;6186505;23;20017;-81
2021/11/29 03:31:32;;;;;;;8.75;0.73;;;2.80;99.90;;;;;;6187076;23;20048;-78
2021/11/29 03:34:09;;;;;;;7.18;0.70;;;3.10;99.90;;;;;;6212342;23;20012;-80
2021/11/29 03:36:37;;;;;;;6.32;0.57;;;2.90;99.90;;;;;;6211898;23;20436;-81
2021/11/29 03:39:06;;;;;;;5.95;0.45;;;3.00;99.90;;;;;;6186633;23;20027;-83
2021/11/29 03:41:32;;;;;;;4.60;0.63;;;3.10;99.90;;;;;;6188227;23;20013;-79
2021/11/29 03:43:57;;;;;;;6.38;0.70;;;3.10;99.90;;;;;;6186033;23;20343;-81
2021/11/29 03:46:23;;;;;;;2.65;0.88;;;3.20;99.90;;;;;;6187991;23;20097;-82
2021/11/29 03:48:49;;;;;;;12.02;1.95;;;3.30;99.90;;;;;;6212823;23;20039;-80
2021/11/29 03:51:15;;;;;;;5.43;1.15;;;3.30;99.90;;;;;;6210889;23;20440;-80
2021/11/29 03:53:41;;;;;;;2.90;0.63;;;3.50;99.90;;;;;;6209399;23;20017;-81
2021/11/29 03:56:06;;;;;;;5.38;0.95;;;3.50;99.90;;;;;;6214032;23;20012;-79
2021/11/29 03:58:32;;;;;;;3.95;0.60;;;3.50;99.90;;;;;;6211810;23;20255;-81
2021/11/29 04:00:58;;;;;;;2.65;0.45;;;4.00;99.90;;;;;;6185768;23;20016;-80
2021/11/29 04:03:24;;;;;;;4.93;0.35;;;3.60;99.90;;;;;;6209872;23;20376;-83
2021/11/29 04:05:50;;;;;;;5.65;0.73;;;3.60;99.90;;;;;;6212225;23;20510;-82
2021/11/29 04:08:16;;;;;;;1.80;0.47;;;3.60;99.90;;;;;;6211500;23;20108;-79
2021/11/29 04:10:42;;;;;;;1.67;0.50;;;3.60;99.90;;;;;;6211227;23;20059;-79
2021/11/29 04:13:08;;;;;;;2.65;0.50;;;3.60;99.90;;;;;;6185416;23;20012;-80
2021/11/29 04:15:34;;;;;;;3.50;0.50;;;3.60;99.90;;;;;;6213381;23;20060;-78
2021/11/29 04:17:59;;;;;;;0.90;0.50;;;3.60;99.90;;;;;;6193867;23;20077;-80
2021/11/29 04:20:25;;;;;;;1.92;0.68;;;3.60;99.90;;;;;;6189180;23;20426;-81
2021/11/29 04:23:28;;;;;;;4.07;0.77;;;3.70;99.90;;;;;;6188590;23;20012;-81
2021/11/29 04:25:57;;;;;;;6.47;0.90;;;3.70;99.90;;;;;;6213016;23;20444;-82
2021/11/29 04:28:23;;;;;;;4.07;0.60;;;4.20;99.90;;;;;;6187831;23;20020;-83
2021/11/29 04:30:49;;;;;;;2.92;0.52;;;3.70;99.90;;;;;;6188622;23;20013;-82
2021/11/29 04:33:15;;;;;;;7.53;0.85;;;4.70;99.90;;;;;;6212560;23;20087;-82
2021/11/29 04:35:40;;;;;;;2.35;0.60;;;4.60;99.90;;;;;;6186318;23;20051;-84
2021/11/29 04:38:06;;;;;;;3.55;0.60;;;3.80;99.90;;;;;;6187036;23;20016;-81
2021/11/29 04:40:32;;;;;;;3.50;0.88;;;3.70;99.90;;;;;;6212192;23;20444;-82
2021/11/29 04:42:58;;;;;;;5.35;0.90;;;3.80;99.90;;;;;;6187140;23;20013;-84
2021/11/29 04:45:24;;;;;;;2.30;0.65;;;4.20;99.90;;;;;;6187244;23;20360;-82
2021/11/29 04:47:50;;;;;;;4.47;1.00;;;4.20;99.90;;;;;;6210801;23;20024;-83
2021/11/29 04:50:16;;;;;;;4.78;0.90;;;3.80;99.90;;;;;;6186840;23;20016;-83
2021/11/29 04:52:42;;;;;;;5.25;0.80;;;4.50;99.90;;;;;;6186698;23;20515;-79
2021/11/29 04:55:08;;;;;;;4.90;0.80;;;3.70;99.90;;;;;;6186807;23;20066;-79
2021/11/29 04:57:34;;;;;;;3.35;0.80;;;3.70;99.90;;;;;;6186244;23;20016;-81
2021/11/29 05:00:01;;;;;;;4.82;0.68;;;3.60;99.90;;;;;;6186219;23;20375;-80
2021/11/29 05:02:27;;;;;;;6.32;0.90;;;3.60;99.90;;;;;;6186535;23;20067;-82
2021/11/29 05:04:52;;;;;;;3.40;0.80;;;4.00;99.90;;;;;;6186079;23;20042;-79
2021/11/29 05:07:18;;;;;;;5.43;1.10;;;3.60;99.90;;;;;;6186265;23;20024;-79
2021/11/29 05:09:44;;;;;;;3.28;0.80;;;3.50;99.90;;;;;;6211116;23;20016;-80
2021/11/29 05:12:13;;;;;;;5.30;0.90;;;3.90;99.90;;;;;;6211335;23;20428;-78
2021/11/29 05:14:39;;;;;;;4.72;0.80;;;3.40;99.90;;;;;;6211488;23;20547;-78
2021/11/29 05:17:05;;;;;;;4.07;0.70;;;3.40;99.90;;;;;;6186536;23;20044;-84
2021/11/29 05:19:31;;;;;;;1.67;0.60;;;3.60;99.90;;;;;;6186154;23;20035;-81
2021/11/29 05:21:57;;;;;;;4.38;1.02;;;3.30;99.90;;;;;;6210746;23;20020;-82
2021/11/29 05:24:23;;;;;;;5.60;0.75;;;3.20;99.90;;;;;;6186527;23;20095;-83
2021/11/29 05:26:48;;;;;;;1.92;0.80;;;3.20;99.90;;;;;;6186573;23;20013;-80
2021/11/29 05:29:15;;;;;;;3.58;1.15;;;3.20;99.90;;;;;;6212337;23;20026;-80
2021/11/29 05:31:43;;;;;;;4.50;1.13;;;3.10;99.90;;;;;;6212213;23;20055;-81
2021/11/29 05:34:09;;;;;;;4.63;1.10;;;3.10;99.90;;;;;;6186727;23;20012;-78
2021/11/29 05:36:34;;;;;;;8.13;0.93;;;3.00;99.90;;;;;;6211072;23;20451;-82
2021/11/29 05:39:00;;;;;;;2.92;1.02;;;3.30;99.90;;;;;;6187251;23;20020;-82
2021/11/29 05:41:26;;;;;;;2.95;1.02;;;2.90;99.90;;;;;;6187808;23;20005;-83
2021/11/29 05:43:52;;;;;;;3.35;1.40;;;3.40;99.90;;;;;;6213012;23;20070;-82
2021/11/29 05:46:22;;;;;;;4.22;1.30;;;2.80;99.90;;;;;;6188583;23;20063;-80
2021/11/29 05:48:49;;;;;;;4.28;1.23;;;2.80;99.90;;;;;;6187989;23;20075;-80
2021/11/29 05:51:16;;;;;;;2.70;1.23;;;2.70;99.90;;;;;;6188784;23;20075;-80
2021/11/29 05:53:43;;;;;;;6.38;1.50;;;2.70;99.90;;;;;;6187953;23;20067;-84
2021/11/29 05:56:09;;;;;;;2.95;1.33;;;2.50;99.90;;;;;;6188256;23;20012;-79
2021/11/29 05:58:35;;;;;;;7.10;1.30;;;2.40;99.90;;;;;;6188186;23;20012;-82
2021/11/29 06:01:03;;;;;;;5.53;1.27;;;2.30;99.90;;;;;;6187360;23;20017;-84
2021/11/29 06:03:29;;;;;;;4.78;1.85;;;2.30;99.90;;;;;;6186893;23;20024;-80
2021/11/29 06:05:55;;;;;;;4.72;2.03;;;2.40;99.90;;;;;;6186605;23;20071;-81
2021/11/29 06:08:21;;;;;;;6.15;2.03;;;2.20;99.90;;;;;;6187122;23;20017;-83
2021/11/29 06:10:47;;;;;;;4.68;1.80;;;2.20;99.90;;;;;;6211463;23;20024;-83
2021/11/29 06:13:13;;;;;;;5.03;2.38;;;2.20;99.90;;;;;;6212083;23;20021;-82
2021/11/29 06:15:38;;;;;;;4.72;2.13;;;2.10;99.90;;;;;;6187051;23;20009;-84
2021/11/29 06:18:04;;;;;;;3.17;1.90;;;2.00;99.90;;;;;;6187307;23;20051;-83
2021/11/29 06:20:30;;;;;;;2.10;1.60;;;1.90;99.90;;;;;;6186381;23;20024;-82
2021/11/29 06:22:56;;;;;;;5.25;2.28;;;1.80;99.90;;;;;;6212850;23;20452;-82
2021/11/29 06:25:23;;;;;;;4.03;1.80;;;2.60;99.90;;;;;;6212392;23;20013;-86
2021/11/29 06:27:50;;;;;;;2.25;1.70;;;1.60;99.90;;;;;;6212494;23;20091;-83
2021/11/29 06:30:17;;;;;;;3.30;1.77;;;1.50;99.90;;;;;;6187726;23;20013;-85
2021/11/29 06:32:43;;;;;;;4.57;1.60;;;2.00;99.90;;;;;;6212623;23;20202;-83
2021/11/29 06:35:09;;;;;;;3.90;1.70;;;1.40;99.90;;;;;;6214695;23;20013;-86
2021/11/29 06:37:59;;;;;;;4.38;1.50;;;1.40;99.90;;;;;;6193055;23;20706;-81
2021/11/29 06:40:25;;;;;;;4.75;1.35;;;1.40;99.90;;;;;;6196096;23;20021;-79
2021/11/29 06:42:50;;;;;;;4.68;1.70;;;1.50;99.90;;;;;;6190810;23;20012;-80
2021/11/29 06:45:16;;;;;;;4.70;1.42;;;1.50;99.90;;;;;;6188740;23;20082;-83
2021/11/29 06:47:42;;;;;;;2.92;1.60;;;1.50;99.90;;;;;;6189850;23;20016;-83
2021/11/29 06:50:10;;;;;;;1.80;1.17;;;1.50;99.90;;;;;;6188351;23;20009;-78
2021/11/29 06:52:36;;;;;;;5.28;1.35;;;1.40;99.90;;;;;;6188199;23;20066;-80
2021/11/29 06:55:02;;;;;;;3.67;1.60;;;1.40;99.90;;;;;;6212544;23;20040;-82
2021/11/29 06:57:28;;;;;;;4.50;1.85;;;1.80;99.90;;;;;;6188250;23;20036;-83
2021/11/29 06:59:54;;;;;;;2.30;1.50;;;1.30;99.90;;;;;;6188596;23;20020;-80
2021/11/29 07:02:26;;;;;;;2.90;1.67;;;1.30;99.90;;;;;;6210868;23;20017;-83
2021/11/29 07:04:53;;;;;;;4.20;1.50;;;1.30;99.90;;;;;;6213144;23;20078;-79
2021/11/29 07:07:19;;;;;;;2.10;1.60;;;1.30;99.90;;;;;;6187225;23;20055;-82
2021/11/29 07:09:44;;;;;;;4.00;1.88;;;1.20;99.90;;;;;;6188658;23;20013;-79
2021/11/29 07:12:13;;;;;;;6.20;1.70;;;1.20;99.90;;;;;;6187407;23;20309;-81
2021/11/29 07:14:38;;;;;;;4.22;1.58;;;1.10;99.90;;;;;;6187544;23;20008;-81
2021/11/29 07:17:04;;;;;;;7.15;2.88;;;1.00;99.90;;;;;;6187060;23;20344;-82
2021/11/29 07:19:30;;;;;;;6.47;2.40;;;1.10;99.90;;;;;;6187238;23;20016;-84
2021/11/29 07:21:55;;;;;;;5.50;2.60;;;1.20;99.90;;;;;;6187293;23;20363;-80
2021/11/29 07:24:21;;;;;;;8.43;2.40;;;1.10;99.90;;;;;;6186062;23;20024;-82
2021/11/29 07:26:47;;;;;;;4.50;1.95;;;1.10;99.90;;;;;;6187673;23;20059;-81
2021/11/29 07:29:14;;;;;;;10.52;2.30;;;0.90;99.90;;;;;;6213162;23;20025;-84
2021/11/29 07:31:41;;;;;;;3.42;1.85;;;0.90;99.90;;;;;;6213329;23;20043;-84
2021/11/29 07:34:07;;;;;;;5.05;2.30;;;0.90;99.90;;;;;;6217850;23;20009;-82
2021/11/29 07:36:35;;;;;;;5.18;2.70;;;0.90;99.90;;;;;;6214996;23;20624;-77
2021/11/29 07:39:00;;;;;;;6.75;2.88;;;1.00;99.90;;;;;;6212116;23;20017;-83
2021/11/29 07:41:26;;;;;;;9.93;2.72;;;1.30;99.90;;;;;;6213456;23;20005;-84
2021/11/29 07:43:52;;;;;;;4.63;3.05;;;1.20;99.90;;;;;;6188898;23;20062;-82
2021/11/29 07:46:18;;;;;;;10.07;3.15;;;1.20;99.90;;;;;;6213644;23;20016;-81
2021/11/29 07:48:44;;;;;;;6.05;2.63;;;1.40;99.90;;;;;;6213924;23;20439;-89
2021/11/29 07:51:10;;;;;;;10.23;2.58;;;1.30;99.90;;;;;;6187740;23;20020;-79
2021/11/29 07:53:36;;;;;;;4.72;2.22;;;1.30;99.90;;;;;;6187951;23;20017;-80
2021/11/29 07:56:02;;;;;;;10.30;2.97;;;1.60;99.90;;;;;;6187745;23;20023;-78
2021/11/29 07:58:27;;;;;;;5.75;2.28;;;1.40;99.90;;;;;;6196296;23;20384;-82
2021/11/29 08:00:54;;;;;;;7.60;2.70;;;1.70;99.90;;;;;;6215692;23;20158;-80
2021/11/29 08:03:20;;;;;;;4.82;2.83;;;1.60;99.90;;;;;;6218364;23;20028;-80
2021/11/29 08:05:47;;;;;;;4.07;2.35;;;1.60;99.90;;;;;;6193926;23;20581;-80
2021/11/29 08:08:50;;;;;;;4.15;2.75;;;1.50;99.90;;;;;;6222703;23;20040;-81
2021/11/29 08:11:15;;;;;;;4.60;2.40;;;1.50;99.90;;;;;;6196826;23;20428;-78
2021/11/29 08:13:42;;;;;;;4.00;2.58;;;1.50;99.90;;;;;;6219257;23;20013;-82
2021/11/29 08:16:08;;;;;;;4.03;2.58;;;1.40;99.90;;;;;;6212052;23;20070;-80
2021/11/29 08:18:33;;;;;;;4.93;3.03;;;1.40;99.90;;;;;;6213599;23;20327;-80
2021/11/29 08:20:59;;;;;;;9.07;3.47;;;1.40;99.90;;;;;;6188441;23;20013;-80
2021/11/29 08:23:25;;;;;;;5.80;3.40;;;1.30;99.90;;;;;;6212348;23;20012;-80
2021/11/29 08:25:50;;;;;;;5.93;3.00;;;1.30;99.90;;;;;;6187587;23;20052;-79
2021/11/29 08:28:16;;;;;;;6.78;3.83;;;1.20;99.90;;;;;;6212944;23;20349;-79
2021/11/29 08:30:43;;;;;;;12.98;6.05;;;1.20;99.90;;;;;;6212688;23;20009;-80
2021/11/29 08:33:12;;;;;;;10.00;4.88;;;1.20;99.90;;;;;;6213462;23;20040;-77
2021/11/29 08:35:40;;;;;;;11.10;5.35;;;1.30;99.90;;;;;;6212407;23;20144;-77
2021/11/29 08:38:06;;;;;;;7.35;4.47;;;1.30;99.90;;;;;;6213132;23;20245;-77
2021/11/29 08:40:34;;;;;;;11.60;4.80;;;1.30;99.90;;;;;;6213129;23;20012;-77
2021/11/29 08:43:12;;;;;;;15.77;5.22;;;1.30;99.90;;;;;;6213933;23;20119;-77
2021/11/29 08:45:40;;;;;;;10.32;4.13;;;1.30;99.90;;;;;;6213207;23;20013;-77
2021/11/29 08:48:08;;;;;;;10.70;5.43;;;1.30;99.90;;;;;;6188883;23;20043;-79
2021/11/29 08:51:03;;;;;;;15.90;5.18;;;1.30;99.90;;;;;;6212565;23;20013;-84
2021/11/29 08:53:37;;;;;;;8.00;4.67;;;1.30;99.90;;;;;;6188027;23;20016;-80
2021/11/29 08:56:06;;;;;;;9.57;4.40;;;1.40;99.90;;;;;;6156967;23;20293;-80
2021/11/29 08:58:31;;;;;;;9.15;4.65;;;1.50;99.90;;;;;;6134789;23;20013;-77
2021/11/29 09:00:57;;;;;;;9.85;4.93;;;1.50;99.90;;;;;;6134633;23;20017;-79
2021/11/29 09:03:23;;;;;;;11.45;5.53;;;1.90;99.90;;;;;;6156039;23;20317;-78
2021/11/29 09:05:52;;;;;;;13.45;5.72;;;2.80;99.90;;;;;;6156467;23;20017;-79
2021/11/29 09:08:18;;;;;;;12.27;5.45;;;2.00;99.90;;;;;;6157115;23;20124;-78
2021/11/29 09:10:46;;;;;;;10.25;5.43;;;2.10;99.90;;;;;;6130944;23;20028;-82
2021/11/29 09:13:12;;;;;;;10.75;5.75;;;2.30;99.90;;;;;;6156504;23;20059;-80
2021/11/29 09:15:38;;;;;;;14.00;5.60;;;2.50;99.90;;;;;;6134616;23;20009;-83
2021/11/29 09:18:04;;;;;;;11.48;5.38;;;3.20;99.90;;;;;;6161017;23;20021;-81
2021/11/29 09:20:31;;;;;;;13.63;6.55;;;2.80;99.90;;;;;;6134028;23;20078;-81
2021/11/29 09:22:57;;;;;;;10.57;6.30;;;2.90;99.90;;;;;;6131832;23;20110;-79
2021/11/29 09:25:24;;;;;;;21.10;6.88;;;3.00;99.90;;;;;;6131000;23;20381;-82
2021/11/29 09:27:50;;;;;;;19.08;7.75;;;3.10;99.90;;;;;;6177885;23;20095;-81
2021/11/29 09:30:17;;;;;;;14.90;8.23;;;3.20;99.90;;;;;;6212766;23;20432;-83
2021/11/29 09:32:44;;;;;;;16.88;7.35;;;3.20;99.90;;;;;;6187550;23;20020;-82
2021/11/29 09:35:12;;;;;;;15.82;7.38;;;3.30;99.90;;;;;;6187456;23;20088;-82
2021/11/29 09:37:39;;;;;;;13.00;7.07;;;3.40;99.90;;;;;;6212710;23;20035;-81
2021/11/29 09:40:09;;;;;;;13.38;7.07;;;3.70;99.90;;;;;;6186358;23;20055;-81
2021/11/29 09:42:36;;;;;;;14.10;7.22;;;3.50;99.90;;;;;;6187231;23;20024;-81
2021/11/29 09:45:03;;;;;;;13.43;7.35;;;3.70;99.90;;;;;;6187369;23;20130;-81
2021/11/29 09:47:29;;;;;;;22.98;7.90;;;3.60;99.90;;;;;;6186914;23;20038;-83
2021/11/29 09:49:57;;;;;;;17.83;7.35;;;3.70;99.90;;;;;;6186503;23;20095;-83
2021/11/29 09:52:23;;;;;;;14.40;7.30;;;3.70;99.90;;;;;;6211545;23;20044;-81
2021/11/29 09:54:49;;;;;;;12.95;7.32;;;4.30;99.90;;;;;;6187860;23;20051;-81
2021/11/29 09:57:16;;;;;;;17.23;7.43;;;3.90;99.90;;;;;;6187196;23;20012;-83
2021/11/29 09:59:44;;;;;;;12.38;7.18;;;4.00;99.90;;;;;;6186921;23;20036;-82
2021/11/29 10:02:13;;;;;;;14.00;8.10;;;4.00;99.90;;;;;;6212906;23;20017;-81
2021/11/29 10:19:54;;;;;;;13.20;7.00;;;4.10;99.90;;;;;;6210749;22;19915;-87
2021/11/29 10:26:52;;;;;;;8.93;4.50;;;4.10;99.90;;;;;;6124427;23;20391;-82
2021/11/29 10:29:18;;;;;;;7.38;4.82;;;4.50;99.90;;;;;;6040044;23;20104;-79
2021/11/29 10:31:49;;;;;;;8.13;4.22;;;4.40;99.90;;;;;;6041383;23;20434;-79
2021/11/29 10:34:18;;;;;;;8.38;3.72;;;5.20;99.90;;;;;;6039812;23;20034;-81
2021/11/29 10:36:50;;;;;;;8.57;3.78;;;4.40;99.90;;;;;;6041511;23;20019;-79
2021/11/29 10:39:23;;;;;;;7.32;3.83;;;4.40;99.90;;;;;;6040943;23;20050;-80
2021/11/29 10:42:06;;;;;;;6.78;3.53;;;4.40;99.90;;;;;;6017968;23;20014;-82
2021/11/29 10:44:42;;;;;;;6.05;3.30;;;4.40;99.90;;;;;;6041981;23;20034;-83
2021/11/29 10:47:11;;;;;;;5.07;3.85;;;4.50;99.90;;;;;;6041521;23;20075;-83
2021/11/29 10:49:40;;;;;;;10.95;3.30;;;4.50;99.90;;;;;;6041379;23;20073;-80
2021/11/29 10:52:08;;;;;;;10.30;4.38;;;4.50;99.90;;;;;;6018082;23;20014;-80
2021/11/29 10:54:35;;;;;;;7.45;3.30;;;4.50;99.90;;;;;;6040997;23;20049;-84
2021/11/29 10:57:03;;;;;;;6.63;3.60;;;4.80;99.90;;;;;;6122743;23;20036;-80
2021/11/29 10:59:38;;;;;;;5.95;3.25;;;4.80;99.90;;;;;;6103974;23;20017;-83
2021/11/29 11:02:27;;;;;;;4.47;3.30;;;4.80;99.90;;;;;;6103429;23;20454;-86
2021/11/29 11:05:04;;;;;;;7.03;3.42;;;4.80;99.90;;;;;;6131621;23;20020;-80
2021/11/29 11:07:33;;;;;;;5.95;3.92;;;4.90;99.90;;;;;;6162391;23;20517;-80
2021/11/29 11:10:00;;;;;;;7.57;3.70;;;5.10;99.90;;;;;;6187947;23;20040;-79
2021/11/29 11:12:33;;;;;;;7.05;3.33;;;4.90;99.90;;;;;;6162766;23;20433;-78
2021/11/29 11:15:04;;;;;;;4.57;3.30;;;4.80;99.90;;;;;;6187052;23;20019;-80
2021/11/29 11:17:31;;;;;;;9.07;3.60;;;4.90;99.90;;;;;;6188165;23;20020;-82
2021/11/29 11:20:00;;;;;;;9.45;3.50;;;5.00;99.90;;;;;;6207762;23;20020;-83
2021/11/29 11:22:37;;;;;;;7.40;3.50;;;4.90;99.90;;;;;;6187750;23;20024;-82
2021/11/29 11:25:18;;;;;;;6.82;3.55;;;5.00;99.90;;;;;;6187609;23;20024;-83
2021/11/29 11:27:58;;;;;;;4.40;3.30;;;5.00;99.90;;;;;;6187904;23;20340;-83
2021/11/29 11:30:27;;;;;;;6.20;3.60;;;5.00;99.90;;;;;;6212491;23;20016;-79
2021/11/29 11:33:01;;;;;;;5.07;3.60;;;5.30;99.90;;;;;;6188208;23;20441;-83
2021/11/29 11:35:35;;;;;;;7.95;3.72;;;5.10;99.90;;;;;;6187615;23;20091;-82
2021/11/29 11:38:05;;;;;;;4.40;3.42;;;5.90;99.90;;;;;;6213661;23;20013;-81
2021/11/29 11:40:33;;;;;;;6.43;3.78;;;5.10;99.90;;;;;;6213116;23;20341;-81
2021/11/29 11:43:01;;;;;;;6.10;3.60;;;5.20;99.90;;;;;;6188593;23;20016;-80
2021/11/29 11:45:28;;;;;;;4.72;3.55;;;5.20;99.90;;;;;;6162405;23;20095;-82
2021/11/29 11:48:00;;;;;;;7.35;3.92;;;5.20;99.90;;;;;;6187949;23;20017;-81
2021/11/29 11:50:29;;;;;;;8.30;3.92;;;5.30;99.90;;;;;;6214662;23;20104;-80
2021/11/29 11:52:58;;;;;;;5.07;3.65;;;5.30;99.90;;;;;;6212604;23;20441;-81
2021/11/29 11:55:32;;;;;;;11.32;3.50;;;5.20;99.90;;;;;;6187865;23;20013;-81
2021/11/29 11:58:01;;;;;;;4.85;3.50;;;5.80;99.90;;;;;;6213088;23;20378;-81
2021/11/29 12:09:28;;;;;;;9.15;3.47;;;5.50;99.90;;;;;;6217559;22;20023;-83
2021/11/29 12:12:03;;;;;;;6.55;3.78;;;6.50;99.90;;;;;;6219360;23;20017;-83
2021/11/29 12:14:34;;;;;;;4.80;3.33;;;5.80;99.90;;;;;;6218024;23;20091;-86
2021/11/29 12:17:12;;;;;;;10.63;4.05;;;5.70;99.90;;;;;;6217769;23;20062;-86
2021/11/29 12:19:42;;;;;;;12.52;3.90;;;5.80;99.90;;;;;;6191351;23;20095;-78
2021/11/29 12:22:31;;;;;;;6.15;3.78;;;5.80;99.90;;;;;;6191649;23;20020;-82
2021/11/29 12:25:22;;;;;;;4.20;3.63;;;5.70;99.90;;;;;;6244597;23;20138;-86
2021/11/29 12:27:59;;;;;;;5.10;3.40;;;5.70;99.90;;;;;;6192524;23;20450;-84
2021/11/29 12:30:32;;;;;;;6.32;3.83;;;5.70;99.90;;;;;;6245917;23;20035;-82
2021/11/29 12:33:02;;;;;;;5.72;3.65;;;5.60;99.90;;;;;;6226959;23;20050;-80
2021/11/29 12:35:37;;;;;;;10.13;3.90;;;5.50;99.90;;;;;;6196480;23;20276;-83
2021/11/29 12:38:10;;;;;;;7.30;3.88;;;5.50;99.90;;;;;;6216063;23;20047;-85
2021/11/29 12:40:52;;;;;;;5.80;4.00;;;5.50;99.90;;;;;;6218020;23;20008;-84
2021/11/29 12:43:51;;;;;;;6.18;3.55;;;5.50;99.90;;;;;;6218119;23;20012;-85
2021/11/29 12:46:23;;;;;;;6.00;3.67;;;5.40;99.90;;;;;;6123510;23;20025;-87
2021/11/29 12:48:49;;;;;;;6.10;3.60;;;5.50;99.90;;;;;;6073000;23;20397;-84
2021/11/29 12:51:20;;;;;;;9.40;3.63;;;5.40;99.90;;;;;;6073137;23;20129;-81
2021/11/29 12:53:46;;;;;;;6.32;3.47;;;5.40;99.90;;;;;;6073793;23;20018;-84
2021/11/29 12:56:12;;;;;;;7.97;3.88;;;5.70;99.90;;;;;;6073696;23;20033;-84
2021/11/29 12:58:38;;;;;;;8.10;3.92;;;5.60;99.90;;;;;;6097540;23;20053;-82
2021/11/29 13:01:11;;;;;;;5.03;3.70;;;5.40;99.90;;;;;;6096905;23;20080;-79
2021/11/29 13:03:50;;;;;;;7.82;3.88;;;5.40;99.90;;;;;;6097797;23;20498;-82
2021/11/29 13:06:18;;;;;;;6.75;3.72;;;5.40;99.90;;;;;;6095240;23;20021;-77
2021/11/29 13:08:46;;;;;;;5.63;3.58;;;5.50;99.90;;;;;;6071377;23;20018;-78
2021/11/29 13:11:12;;;;;;;8.20;3.83;;;5.70;99.90;;;;;;6096748;23;20030;-82
2021/11/29 13:13:54;;;;;;;7.45;4.30;;;5.80;99.90;;;;;;6074561;23;20018;-84
2021/11/29 13:16:25;;;;;;;11.20;4.97;;;5.90;99.90;;;;;;6096984;23;20025;-82
2021/11/29 13:19:02;;;;;;;6.65;3.80;;;6.00;99.90;;;;;;6074601;23;20014;-83
2021/11/29 13:21:28;;;;;;;5.95;3.40;;;6.00;99.90;;;;;;6126541;23;20023;-85
2021/11/29 13:24:07;;;;;;;5.10;3.45;;;6.00;99.90;;;;;;6187235;23;20087;-83
2021/11/29 13:26:46;;;;;;;5.82;3.40;;;6.00;99.90;;;;;;6186740;23;20333;-83
2021/11/29 13:29:18;;;;;;;6.00;3.80;;;6.40;99.90;;;;;;6214204;23;20024;-81